Αρχική σελίδα
METAR-TAF:

METAR-TAF

Αεροδρόμια :

Porto Alegre, Ρίο Γκράντε ντο Σουλ, Βραζιλία

γεωγραφικό πλάτος: 30-00S, γεωγραφικό μήκος: 051-11W, υψόμετρο: 3 μ

Παρών καιρός

Η αναφορά έγινε 47 λεπτά πριν, στις 08:00 UTC
Ήπιος άνεμος
Θερμοκρασία 20°C
Υγρασία 94%
Πίεση 1015 hPa
Ορατότητα: 9000 μ

METAR: SBPA 190800Z 00000KT 9000 NSC 20/19 Q1015

Χρόνος: 05:47 (08:47 UTC)

Πρόγνωση Καιρού

Η αναφορά έγινε 7 ώρες και 17 λεπτά πριν, στις 01:30 UTC
Η πρόγνωση ισχύει από τις 19 στις 06 UTC έως τις 20 στις 06 UTC
Άνεμος 10 kt από Α
Ορατότητα 10 χλμ και άνω
Δεν υπάρχουν νέφη με βάση κάτω από τα 1500 μ. και δεν υπάρχουν νέφη σωρειτομελανίτες.

TAF: SBPA 190130Z 1906/2006 10010KT CAVOK TN19/1908Z TX34/1918Z RMK PEB

Μετεωρολογικές αναφορές και προγνώσεις για περισσότερα από 4000 αεροδρόμια (δελτία METAR και TAF).

Οι διαθέσιμοι σταθμοί απεικονίζονται στο χάρτη με κίτρινες και κόκκινες κουκκίδες.

Μετακινήστε το ποντίκι πάνω από τις κουκκίδες για να δείτε το όνομα του σταθμού.

Στη συνέχεια, κάντε κλικ για να δείτε τις μετεωρολογικές αναφορές και τις προγνώσεις καιρού.

Για να αλλάξετε το χάρτη: κάντε κλικ στα πράσινα κουμπιά με τον μαύρο σταυρό για να ζουμάρετε, στο πράσινο κουμπί με την παύλα για να αφαιρέσετε το ζουμ ή στα πράσινα βέλη για να αντιπαραβάλλετε χάρτες.


METAR-TAF: